Time;durP1;ratioP1;P1;durP2;ratioP2;P2;SDS_P1;SDS_P2;PMS_P1;PMS_P2;Temp;Humidity;BMP_temperature;BMP_pressure;BME280_temperature;BME280_humidity;BME280_pressure;Samples;Min_cycle;Max_cycle;Signal;HPM_P1;HPM_P2
2022/09/09 00:02:23;;;;;;;5.70;1.83;;;;;;;25.97;56.09;100388.03;4864611;29;20124;-78
2022/09/09 00:05:28;;;;;;;3.10;2.08;;;;;;;25.96;56.20;100383.66;4840428;29;20128;-80
2022/09/09 00:08:20;;;;;;;5.35;2.38;;;;;;;25.95;56.10;100380.13;4842898;29;20057;-79
2022/09/09 00:11:09;;;;;;;5.13;2.30;;;;;;;25.97;55.94;100382.47;4841220;29;20073;-79
2022/09/09 00:13:58;;;;;;;4.88;1.95;;;;;;;25.97;55.83;100379.69;4862915;29;20530;-80
2022/09/09 00:16:50;;;;;;;6.93;1.90;;;;;;;25.98;55.77;100378.47;4874085;29;20056;-80
2022/09/09 00:19:46;;;;;;;5.63;1.60;;;;;;;25.97;56.09;100386.03;4863418;29;20052;-81
2022/09/09 00:22:34;;;;;;;9.02;1.80;;;;;;;25.96;55.98;100386.47;4863705;29;20045;-81
2022/09/09 00:25:28;;;;;;;5.47;1.73;;;;;;;25.98;55.63;100384.84;4864167;29;20072;-81
2022/09/09 00:28:19;;;;;;;5.57;2.33;;;;;;;25.97;56.15;100388.03;4862456;29;20053;-80
2022/09/09 00:31:19;;;;;;;7.30;1.73;;;;;;;25.94;55.74;100377.75;4864624;29;20056;-80
2022/09/09 00:34:17;;;;;;;9.25;2.05;;;;;;;25.95;56.10;100382.13;4861826;29;20049;-80
2022/09/09 00:37:02;;;;;;;3.35;1.85;;;;;;;25.94;55.89;100394.47;4862210;29;20550;-81
2022/09/09 00:39:49;;;;;;;6.78;2.30;;;;;;;25.93;56.08;100393.69;4875356;29;20052;-80
2022/09/09 00:42:43;;;;;;;5.63;2.10;;;;;;;25.91;56.10;100384.16;4863430;29;20052;-79
2022/09/09 00:45:57;;;;;;;6.82;1.90;;;;;;;25.93;55.89;100392.91;4864854;29;20065;-81
2022/09/09 00:48:57;;;;;;;5.03;2.08;;;;;;;25.93;55.93;100390.13;4863814;29;20048;-82
2022/09/09 00:51:57;;;;;;;6.00;2.10;;;;;;;25.91;55.73;100390.53;4866533;29;20056;-81
2022/09/09 00:54:48;;;;;;;4.15;1.67;;;;;;;25.91;56.04;100384.16;4863578;29;20061;-81
2022/09/09 00:57:35;;;;;;;8.75;2.45;;;;;;;25.85;56.03;100381.09;4874874;29;20570;-80
2022/09/09 01:00:21;;;;;;;7.55;3.15;;;;;;;25.82;55.48;100392.31;4873604;29;20060;-81
2022/09/09 01:03:35;;;;;;;6.38;1.98;;;;;;;25.77;55.40;100390.03;4875553;29;20541;-79
2022/09/09 01:06:31;;;;;;;8.93;2.58;;;;;;;25.74;55.37;100393.66;4863315;29;20439;-82
2022/09/09 01:09:26;;;;;;;11.02;2.22;;;;;;;25.71;55.46;100384.16;4879671;29;20057;-81
2022/09/09 01:12:25;;;;;;;6.22;2.25;;;;;;;25.68;55.25;100368.31;4863869;29;20049;-80
2022/09/09 01:15:25;;;;;;;6.35;1.83;;;;;;;25.66;55.39;100367.13;4867284;29;20054;-80
2022/09/09 01:18:17;;;;;;;5.70;2.00;;;;;;;25.65;54.91;100360.78;4864957;29;20056;-80
2022/09/09 01:21:40;;;;;;;14.30;2.75;;;;;;;25.63;55.16;100365.22;4875674;29;20056;-80
2022/09/09 01:25:05;;;;;;;4.38;2.67;;;;;;;25.56;55.30;100374.47;4864837;29;20061;-80
2022/09/09 01:28:18;;;;;;;10.68;2.75;;;;;;;25.57;55.39;100372.50;4865140;29;20531;-81
2022/09/09 01:31:06;;;;;;;3.55;2.45;;;;;;;25.53;55.30;100370.53;4863460;29;20049;-80
2022/09/09 01:33:58;;;;;;;6.53;2.30;;;;;;;25.55;55.09;100361.75;4868180;29;20048;-81
2022/09/09 01:36:53;;;;;;;6.05;2.70;;;;;;;25.54;55.17;100363.75;4864194;29;20056;-80
2022/09/09 01:39:42;;;;;;;12.45;2.70;;;;;;;25.50;55.14;100360.22;4862718;29;20419;-80
2022/09/09 01:42:29;;;;;;;6.63;2.90;;;;;;;25.48;55.16;100353.53;4862861;29;20068;-81
2022/09/09 01:45:14;;;;;;;10.43;2.72;;;;;;;25.48;55.38;100356.31;4862744;29;20052;-81
2022/09/09 01:48:00;;;;;;;7.75;2.42;;;;;;;25.45;55.63;100355.16;4861619;29;20050;-80
2022/09/09 01:51:00;;;;;;;9.13;2.15;;;;;;;25.45;55.39;100352.38;4862657;29;20045;-80
2022/09/09 01:53:46;;;;;;;9.95;2.78;;;;;;;25.46;55.32;100339.22;4861431;29;20104;-80
2022/09/09 01:56:32;;;;;;;10.75;3.33;;;;;;;25.43;55.41;100346.44;4865943;29;20518;-80
2022/09/09 01:59:17;;;;;;;6.22;1.95;;;;;;;25.40;55.77;100344.50;4862442;29;20065;-80
2022/09/09 02:02:06;;;;;;;10.00;2.53;;;;;;;25.39;55.66;100337.38;4862953;29;20065;-80
2022/09/09 02:04:56;;;;;;;11.35;2.30;;;;;;;25.40;55.46;100344.50;4862207;29;20171;-80
2022/09/09 02:07:48;;;;;;;6.70;2.67;;;;;;;25.39;55.58;100342.97;4861551;29;20076;-80
2022/09/09 02:11:14;;;;;;;5.97;2.60;;;;;;;25.39;55.44;100339.38;4860800;29;20068;-80
2022/09/09 02:14:17;;;;;;;8.63;2.20;;;;;;;25.37;55.49;100339.78;4861861;29;20048;-79
2022/09/09 02:17:11;;;;;;;6.03;2.47;;;;;;;25.36;55.69;100337.44;4860581;29;20056;-79
2022/09/09 02:20:14;;;;;;;6.57;2.72;;;;;;;25.32;55.48;100340.28;4861414;29;20061;-79
2022/09/09 02:23:16;;;;;;;7.10;2.33;;;;;;;25.34;55.40;100329.53;4861518;29;20064;-79
2022/09/09 02:26:04;;;;;;;5.35;2.33;;;;;;;25.34;55.86;100331.53;4861462;29;20057;-79
2022/09/09 02:28:51;;;;;;;7.93;2.78;;;;;;;25.34;55.68;100334.31;4862466;29;20056;-80
2022/09/09 02:31:36;;;;;;;6.10;2.10;;;;;;;25.33;55.49;100339.09;4861284;29;20076;-80
2022/09/09 02:34:27;;;;;;;6.63;3.25;;;;;;;25.32;55.32;100348.63;4864447;29;20420;-80
2022/09/09 02:37:17;;;;;;;7.18;2.67;;;;;;;25.27;55.21;100339.97;4875344;29;20052;-79
2022/09/09 02:40:09;;;;;;;7.63;2.42;;;;;;;25.26;55.52;100344.75;4867461;24;20049;-79
2022/09/09 02:42:57;;;;;;;4.95;1.92;;;;;;;25.27;55.39;100351.13;4866980;29;20432;-82
2022/09/09 02:45:53;;;;;;;8.05;2.25;;;;;;;25.28;55.48;100347.91;4871156;29;20052;-80
2022/09/09 02:48:50;;;;;;;9.35;2.28;;;;;;;25.28;55.35;100352.69;4873437;29;20529;-80
2022/09/09 02:51:36;;;;;;;6.18;2.15;;;;;;;25.28;55.44;100358.25;4875067;29;20059;-80
2022/09/09 02:54:30;;;;;;;3.40;1.83;;;;;;;25.29;54.96;100360.63;4865067;29;20522;-84
2022/09/09 02:57:26;;;;;;;7.70;1.90;;;;;;;25.31;55.24;100360.97;4866080;29;20456;-83
2022/09/09 03:00:13;;;;;;;15.00;2.30;;;;;;;25.29;55.26;100345.91;4860050;29;20061;-82
2022/09/09 03:02:58;;;;;;;6.95;2.30;;;;;;;25.30;55.32;100347.47;4863868;29;20060;-81
2022/09/09 03:05:44;;;;;;;9.25;2.50;;;;;;;25.30;55.37;100350.25;4870237;29;20048;-83
2022/09/09 03:08:29;;;;;;;6.75;2.30;;;;;;;25.27;55.24;100338.00;4860255;29;20072;-81
2022/09/09 03:11:16;;;;;;;8.75;2.47;;;;;;;25.27;55.22;100340.78;4860582;29;20065;-83
2022/09/09 03:14:02;;;;;;;9.02;2.47;;;;;;;25.26;55.26;100333.63;4873128;29;20056;-85
2022/09/09 03:16:49;;;;;;;4.35;2.67;;;;;;;25.24;55.01;100335.28;4865059;29;20060;-82
2022/09/09 03:19:35;;;;;;;6.10;2.28;;;;;;;25.22;55.14;100329.34;4860576;29;20427;-85
2022/09/09 03:22:21;;;;;;;6.53;1.83;;;;;;;25.20;54.97;100332.53;4862195;29;20052;-85
2022/09/09 03:25:06;;;;;;;4.57;2.00;;;;;;;25.19;54.74;100327.41;4860601;29;20060;-81
2022/09/09 03:27:54;;;;;;;4.65;1.98;;;;;;;25.17;54.87;100329.81;4864197;29;20064;-84
2022/09/09 03:30:40;;;;;;;3.90;1.90;;;;;;;25.16;54.93;100328.25;4860407;29;20057;-82
2022/09/09 03:33:24;;;;;;;7.28;2.40;;;;;;;25.13;55.05;100319.53;4873516;29;20057;-82
2022/09/09 03:36:10;;;;;;;11.30;2.33;;;;;;;25.10;54.97;100314.03;4872337;29;20048;-81
2022/09/09 03:38:55;;;;;;;4.43;2.17;;;;;;;25.09;54.86;100309.69;4861768;29;20049;-83
2022/09/09 03:41:45;;;;;;;5.63;2.20;;;;;;;25.08;54.91;100316.47;4865356;29;20068;-82
2022/09/09 03:44:30;;;;;;;5.25;1.92;;;;;;;25.02;54.92;100302.25;4866960;29;20420;-86
2022/09/09 03:47:21;;;;;;;5.32;1.50;;;;;;;25.09;54.92;100316.00;4868109;29;20056;-81
2022/09/09 03:50:10;;;;;;;3.33;2.00;;;;;;;25.08;54.94;100305.31;4865395;29;20057;-84
2022/09/09 03:52:57;;;;;;;13.02;1.98;;;;;;;25.06;54.89;100311.31;4865600;29;20060;-84
2022/09/09 03:55:49;;;;;;;8.48;3.53;;;;;;;25.05;54.78;100306.94;4871986;29;20420;-83
2022/09/09 03:58:35;;;;;;;6.90;2.38;;;;;;;25.05;55.10;100306.94;4859998;29;20052;-83
2022/09/09 04:01:26;;;;;;;4.50;2.00;;;;;;;25.06;55.05;100314.09;4865528;29;20052;-82
2022/09/09 04:04:12;;;;;;;5.07;1.88;;;;;;;25.02;54.94;100301.44;4879853;29;20139;-82
2022/09/09 04:06:56;;;;;;;4.97;1.98;;;;;;;25.01;54.97;100299.88;4885263;29;20049;-85
2022/09/09 04:09:41;;;;;;;9.93;1.92;;;;;;;25.00;55.00;100295.50;4866767;29;20452;-84
2022/09/09 04:12:27;;;;;;;7.68;2.38;;;;;;;24.96;55.05;100292.00;4868292;29;20052;-85
2022/09/09 04:15:11;;;;;;;;;;;;;;;25.01;54.79;100300.66;4871982;29;20446;-83
2022/09/09 04:17:57;;;;;;;5.50;1.92;;;;;;;24.99;55.07;100296.75;4871847;29;19920;-83
2022/09/09 04:20:43;;;;;;;6.28;1.73;;;;;;;24.98;54.73;100300.72;4858469;29;20053;-83
2022/09/09 04:23:29;;;;;;;5.50;1.77;;;;;;;24.98;54.81;100297.94;4856500;29;20130;-82
2022/09/09 04:26:15;;;;;;;7.05;1.77;;;;;;;24.96;54.92;100287.22;4883165;29;20051;-81
2022/09/09 04:29:04;;;;;;;4.85;1.95;;;;;;;24.96;55.09;100298.38;4870872;29;20057;-79
2022/09/09 04:31:48;;;;;;;5.60;1.90;;;;;;;24.97;55.08;100288.03;4879992;29;20565;-83
2022/09/09 04:34:33;;;;;;;;;;;;;;;24.99;55.00;100296.75;4867037;29;20111;-84
2022/09/09 04:37:17;;;;;;;5.13;2.00;;;;;;;24.97;54.86;100299.16;4868917;29;19920;-85
2022/09/09 04:40:03;;;;;;;8.57;3.05;;;;;;;24.96;54.87;100292.78;4861201;29;20451;-86
2022/09/09 04:42:49;;;;;;;9.55;2.10;;;;;;;24.93;55.12;100290.88;4855110;29;20056;-85
2022/09/09 04:45:34;;;;;;;11.90;2.40;;;;;;;24.80;54.58;100278.72;4874915;29;20431;-84
2022/09/09 04:48:20;;;;;;;3.78;2.30;;;;;;;24.77;54.64;100290.72;4875689;29;20071;-85
2022/09/09 04:51:09;;;;;;;10.77;2.33;;;;;;;24.88;54.94;100293.34;4880328;29;20048;-82
2022/09/09 04:53:55;;;;;;;5.22;2.17;;;;;;;24.92;54.62;100292.06;4872848;29;20419;-83
2022/09/09 04:56:50;;;;;;;15.15;3.03;;;;;;;24.91;54.62;100296.06;4875971;29;20060;-84
2022/09/09 04:59:35;;;;;;;7.13;2.45;;;;;;;24.84;54.89;100295.38;4870225;29;20499;-83
2022/09/09 05:02:21;;;;;;;11.05;2.70;;;;;;;24.77;54.88;100287.94;4877547;29;20044;-82
2022/09/09 05:05:06;;;;;;;;;;;;;;;24.75;54.75;100292.31;4868621;29;20427;-81
2022/09/09 05:07:51;;;;;;;7.32;2.17;;;;;;;24.65;54.76;100282.94;4872063;29;19916;-84
2022/09/09 05:10:38;;;;;;;6.45;2.38;;;;;;;24.65;54.81;100300.41;4864416;29;20057;-81
2022/09/09 05:13:23;;;;;;;13.45;3.20;;;;;;;24.61;55.13;100298.91;4864642;29;20052;-83
2022/09/09 05:16:10;;;;;;;6.20;2.58;;;;;;;24.59;55.26;100301.31;4877089;29;20049;-85
2022/09/09 05:18:56;;;;;;;8.82;2.78;;;;;;;24.59;55.21;100309.66;4865174;29;20053;-81
2022/09/09 05:21:41;;;;;;;11.18;2.75;;;;;;;24.58;55.40;100317.19;4859883;29;20072;-84
2022/09/09 05:24:27;;;;;;;9.43;3.22;;;;;;;24.57;55.53;100320.41;4879268;29;20061;-82
2022/09/09 05:27:14;;;;;;;8.52;3.00;;;;;;;24.57;55.70;100321.22;4864688;29;20233;-84
2022/09/09 05:30:00;;;;;;;7.38;2.97;;;;;;;24.56;55.63;100327.97;4879312;29;20056;-82
2022/09/09 05:32:47;;;;;;;10.63;3.75;;;;;;;24.56;55.47;100321.63;4878814;29;20061;-86
2022/09/09 05:35:33;;;;;;;7.10;2.67;;;;;;;24.53;55.17;100330.81;4867304;29;20057;-86
2022/09/09 05:38:18;;;;;;;7.07;2.75;;;;;;;24.49;55.60;100341.19;4887124;29;20055;-86
2022/09/09 05:41:03;;;;;;;10.10;3.28;;;;;;;24.50;55.89;100334.41;4890933;29;20064;-86
2022/09/09 05:43:49;;;;;;;7.63;2.55;;;;;;;24.53;55.52;100333.59;4891773;29;20060;-85
2022/09/09 05:46:35;;;;;;;8.77;2.50;;;;;;;24.57;56.39;100337.91;4894808;29;20053;-85
2022/09/09 05:49:21;;;;;;;3.85;2.40;;;;;;;24.65;55.93;100341.34;4892928;29;20056;-85
2022/09/09 05:52:06;;;;;;;8.35;2.63;;;;;;;24.68;56.19;100338.53;4897103;29;20055;-84
2022/09/09 05:54:51;;;;;;;;;;;;;;;24.84;55.76;100345.44;4887218;29;20064;-84
2022/09/09 05:57:36;;;;;;;7.60;2.25;;;;;;;24.86;56.00;100348.56;4886444;29;20382;-85
2022/09/09 06:00:21;;;;;;;11.35;2.83;;;;;;;24.93;55.81;100342.94;4888255;29;20056;-86
2022/09/09 06:03:06;;;;;;;9.13;2.83;;;;;;;24.96;55.75;100348.44;4893836;29;20056;-86
2022/09/09 06:05:58;;;;;;;14.25;2.65;;;;;;;24.93;56.08;100354.06;4862684;29;20076;-85
2022/09/09 06:08:45;;;;;;;6.85;2.67;;;;;;;25.04;56.05;100346.34;4865014;29;20503;-85
2022/09/09 06:11:31;;;;;;;12.55;2.50;;;;;;;25.18;55.64;100351.66;4874940;29;20052;-84
2022/09/09 06:14:21;;;;;;;7.00;2.75;;;;;;;25.18;55.45;100354.44;4875093;29;20512;-88
2022/09/09 06:17:10;;;;;;;17.67;3.00;;;;;;;25.12;56.09;100365.28;4862344;29;20419;-86
2022/09/09 06:19:55;;;;;;;12.02;2.60;;;;;;;25.06;56.39;100355.03;4847045;29;20038;-87
2022/09/09 06:22:40;;;;;;;22.35;2.65;;;;;;;25.18;55.82;100359.22;4861970;29;20057;-87
2022/09/09 06:25:26;;;;;;;12.73;4.13;;;;;;;25.04;56.37;100360.25;4865364;29;20073;-81
2022/09/09 06:28:10;;;;;;;12.60;3.33;;;;;;;24.96;56.63;100359.56;4867396;29;20495;-82
2022/09/09 06:31:06;;;;;;;10.95;3.13;;;;;;;25.12;56.65;100356.94;4881057;29;20521;-83
2022/09/09 06:33:54;;;;;;;12.18;3.05;;;;;;;25.13;57.13;100355.72;4882550;29;20056;-84
2022/09/09 06:36:41;;;;;;;7.13;3.28;;;;;;;25.13;57.23;100352.16;4886927;29;20048;-83
2022/09/09 06:39:26;;;;;;;11.23;3.95;;;;;;;25.24;57.28;100355.56;4865879;29;20057;-84
2022/09/09 06:42:11;;;;;;;;;;;;;;;25.85;55.75;100358.03;4843882;29;20058;-83
2022/09/09 06:45:08;;;;;;;17.85;3.08;;;;;;;26.52;53.42;100355.84;4862596;29;19916;-83
2022/09/09 06:48:03;;;;;;;11.05;3.25;;;;;;;26.62;53.14;100352.81;4863804;29;20037;-81
2022/09/09 06:50:49;;;;;;;13.88;3.33;;;;;;;26.80;52.78;100358.00;4879904;29;20056;-84
2022/09/09 06:53:36;;;;;;;11.65;2.50;;;;;;;26.81;52.36;100357.56;4885472;29;20049;-82
2022/09/09 06:56:31;;;;;;;15.65;4.28;;;;;;;26.42;54.66;100359.66;4861441;29;20511;-82
2022/09/09 06:59:17;;;;;;;15.05;4.28;;;;;;;26.25;55.21;100353.28;4857555;29;20385;-81
2022/09/09 07:02:03;;;;;;;18.35;4.57;;;;;;;26.03;56.11;100360.47;4842861;29;20049;-82
2022/09/09 07:04:50;;;;;;;11.93;2.83;;;;;;;26.16;55.22;100355.81;4895195;29;20056;-82
2022/09/09 07:07:36;;;;;;;8.23;2.20;;;;;;;26.42;53.36;100359.66;4868237;29;20041;-81
2022/09/09 07:10:22;;;;;;;7.88;1.90;;;;;;;26.62;53.41;100355.59;4870274;29;20071;-81
2022/09/09 07:13:07;;;;;;;9.40;2.20;;;;;;;26.73;53.07;100353.34;4846275;29;20061;-87
2022/09/09 07:15:52;;;;;;;9.45;2.00;;;;;;;26.84;52.03;100350.31;4849582;29;20053;-85
2022/09/09 07:18:37;;;;;;;9.93;1.77;;;;;;;26.94;51.90;100349.31;4867453;29;20052;-81
2022/09/09 07:21:22;;;;;;;8.18;1.90;;;;;;;26.95;52.14;100339.72;4865850;29;20060;-84
2022/09/09 07:24:09;;;;;;;7.70;1.92;;;;;;;26.98;52.05;100341.63;4848759;29;20052;-80
2022/09/09 07:26:55;;;;;;;7.20;1.70;;;;;;;27.05;51.77;100333.09;4882720;29;20048;-82
2022/09/09 07:29:40;;;;;;;9.00;2.05;;;;;;;26.97;51.94;100333.72;4878736;29;20430;-79
2022/09/09 07:32:26;;;;;;;17.33;2.35;;;;;;;26.90;51.33;100329.09;4878760;29;20471;-79
2022/09/09 07:35:12;;;;;;;20.80;2.00;;;;;;;26.93;51.29;100331.00;4882953;29;20056;-79
2022/09/09 07:37:57;;;;;;;4.13;1.85;;;;;;;26.87;51.12;100327.16;4878599;29;20526;-78
2022/09/09 07:40:42;;;;;;;6.22;1.33;;;;;;;26.71;51.56;100325.13;4873810;29;20074;-78
2022/09/09 07:43:26;;;;;;;19.58;2.22;;;;;;;27.61;49.85;100332.84;4866533;29;20056;-79
2022/09/09 07:46:13;;;;;;;5.80;1.17;;;;;;;32.92;37.84;100337.84;4878052;29;20049;-78
2022/09/09 07:48:58;;;;;;;8.00;1.38;;;;;;;34.71;33.95;100334.41;4884174;29;20055;-79
2022/09/09 07:51:47;;;;;;;31.45;1.92;;;;;;;38.18;28.49;100347.34;4882442;29;20067;-79
2022/09/09 07:54:33;;;;;;;5.82;1.20;;;;;;;35.87;31.09;100348.53;4878981;29;20417;-79
2022/09/09 07:57:21;;;;;;;9.15;2.75;;;;;;;38.51;27.09;100348.13;4878873;29;20070;-77
2022/09/09 08:00:07;;;;;;;9.57;1.33;;;;;;;40.56;24.78;100357.03;4878904;29;20415;-78
2022/09/09 08:03:01;;;;;;;11.43;1.42;;;;;;;37.49;28.55;100353.34;4878807;29;20419;-79
2022/09/09 08:05:46;;;;;;;7.57;1.85;;;;;;;35.73;31.55;100349.41;4857511;29;20045;-76
2022/09/09 08:08:31;;;;;;;10.43;1.40;;;;;;;38.37;27.68;100354.84;4852728;29;20053;-78
2022/09/09 08:11:17;;;;;;;8.93;1.77;;;;;;;37.26;28.86;100361.00;4852075;29;20530;-78
2022/09/09 08:14:03;;;;;;;10.73;1.98;;;;;;;38.75;26.89;100372.41;4849993;29;20057;-77
2022/09/09 08:16:50;;;;;;;10.35;1.30;;;;;;;41.52;23.29;100379.66;4854818;29;20038;-78
2022/09/09 08:19:38;;;;;;;7.25;1.65;;;;;;;40.10;24.25;100377.09;4875523;29;20046;-77
2022/09/09 08:22:28;;;;;;;5.88;2.10;;;;;;;37.95;27.07;100375.69;4862146;29;20049;-79
2022/09/09 08:25:13;;;;;;;8.10;1.30;;;;;;;37.92;27.80;100370.25;4865575;29;20064;-76
2022/09/09 08:27:59;;;;;;;4.30;1.23;;;;;;;37.63;28.15;100375.09;4856002;29;20053;-76
2022/09/09 08:30:45;;;;;;;11.10;1.35;;;;;;;35.80;31.41;100382.94;4868748;29;20422;-77
2022/09/09 08:33:29;;;;;;;5.60;1.33;;;;;;;34.71;33.14;100371.13;4869332;29;20049;-77
2022/09/09 08:36:17;;;;;;;7.80;1.38;;;;;;;36.80;29.95;100374.63;4867778;29;20076;-78
2022/09/09 08:39:04;;;;;;;5.03;1.55;;;;;;;37.79;28.68;100370.78;4871042;29;20060;-76
2022/09/09 08:42:00;;;;;;;7.25;1.48;;;;;;;37.30;28.98;100362.78;4884328;24;20431;-80
2022/09/09 08:44:58;;;;;;;3.97;1.20;;;;;;;38.48;27.51;100374.00;4875305;29;20119;-81
2022/09/09 08:48:12;;;;;;;6.97;1.95;;;;;;;39.52;25.50;100368.59;4870319;29;20068;-81
2022/09/09 08:51:01;;;;;;;6.53;1.60;;;;;;;38.18;27.04;100362.34;4883295;29;20052;-81
2022/09/09 08:53:50;;;;;;;5.63;1.25;;;;;;;40.05;25.71;100377.91;4880487;29;20068;-82
2022/09/09 08:56:36;;;;;;;4.47;1.48;;;;;;;40.84;24.32;100373.16;4880121;29;20052;-81
2022/09/09 08:59:21;;;;;;;7.82;1.70;;;;;;;41.99;22.54;100372.28;4883651;29;20056;-82
2022/09/09 09:02:21;;;;;;;6.15;1.58;;;;;;;39.45;26.18;100372.00;4881979;29;20048;-82
2022/09/09 09:05:19;;;;;;;12.95;1.20;;;;;;;35.99;30.46;100364.34;4884396;29;20056;-82
2022/09/09 09:08:26;;;;;;;6.13;0.90;;;;;;;32.58;37.02;100350.38;4884995;29;20033;-82
2022/09/09 09:11:11;;;;;;;25.73;2.83;;;;;;;35.44;32.63;100358.81;4884660;29;20063;-81
2022/09/09 09:14:03;;;;;;;10.50;1.58;;;;;;;36.40;30.13;100353.69;4887611;29;20052;-81
2022/09/09 09:16:54;;;;;;;6.85;1.85;;;;;;;34.31;34.55;100354.81;4884233;29;20048;-81
2022/09/09 09:19:40;;;;;;;10.57;1.98;;;;;;;36.64;30.89;100358.25;4883569;29;20521;-80
2022/09/09 09:22:43;;;;;;;8.00;2.03;;;;;;;41.23;23.68;100373.50;4887461;29;20245;-81
2022/09/09 09:25:41;;;;;;;8.07;2.63;;;;;;;38.06;27.18;100370.06;4884511;29;20122;-81
2022/09/09 09:28:30;;;;;;;9.85;1.55;;;;;;;33.14;36.17;100348.84;4887938;29;20052;-82
2022/09/09 09:31:20;;;;;;;6.40;1.35;;;;;;;33.93;35.31;100341.50;4884770;29;20056;-81
2022/09/09 09:34:08;;;;;;;16.60;1.67;;;;;;;34.42;34.85;100342.91;4884884;29;20518;-81
2022/09/09 09:37:01;;;;;;;15.82;2.22;;;;;;;33.74;36.14;100350.63;4872355;29;20057;-80
2022/09/09 09:39:48;;;;;;;9.98;2.33;;;;;;;33.15;37.14;100375.78;4861928;29;20057;-80
2022/09/09 09:42:33;;;;;;;12.38;1.48;;;;;;;32.76;37.10;100385.38;4865350;29;20052;-80
2022/09/09 09:45:41;;;;;;;11.45;1.63;;;;;;;32.32;36.81;100374.53;4863368;29;20427;-80
2022/09/09 09:48:27;;;;;;;10.30;1.10;;;;;;;31.98;37.81;100383.34;4858469;29;20049;-80
2022/09/09 09:51:23;;;;;;;26.63;1.83;;;;;;;31.58;38.81;100403.19;4867626;29;20073;-79
2022/09/09 09:54:13;;;;;;;13.68;1.50;;;;;;;31.30;39.43;100391.84;4875776;29;20053;-80
2022/09/09 10:26:26;;;;;;;12.40;2.30;;;;;;;29.32;45.75;100410.47;4847713;29;20045;-78
2022/09/09 10:29:34;;;;;;;18.08;3.55;;;;;;;29.11;46.01;100405.53;4849356;29;20056;-79
2022/09/09 10:32:36;;;;;;;6.85;1.85;;;;;;;28.94;46.51;100407.69;4855643;29;20065;-79
2022/09/09 10:35:33;;;;;;;14.75;1.77;;;;;;;28.89;47.18;100409.03;4866058;29;20048;-79
2022/09/09 10:38:43;;;;;;;9.50;1.58;;;;;;;28.82;47.09;100403.66;4868343;29;20041;-79
2022/09/09 10:42:02;;;;;;;6.65;1.38;;;;;;;28.73;47.69;100400.75;4874176;29;20044;-79
2022/09/09 10:44:53;;;;;;;17.70;1.65;;;;;;;28.63;47.63;100399.03;4872736;29;20056;-79
2022/09/09 10:47:52;;;;;;;2.58;1.17;;;;;;;28.55;47.90;100397.66;4861714;29;20041;-79
2022/09/09 10:50:58;;;;;;;9.30;1.40;;;;;;;28.48;48.50;100397.88;4875600;29;20131;-79
2022/09/09 10:54:01;;;;;;;4.10;0.77;;;;;;;28.33;48.91;100394.72;4881733;29;20454;-79
2022/09/09 10:56:56;;;;;;;192.93;35.83;;;;;;;28.13;49.37;100396.91;4883836;29;20068;-78
2022/09/09 10:59:47;;;;;;;275.85;54.03;;;;;;;27.99;49.96;100380.50;4874357;29;20507;-78
2022/09/09 11:02:34;;;;;;;76.38;16.98;;;;;;;27.97;49.72;100380.97;4872085;29;20042;-79
2022/09/09 11:05:25;;;;;;;60.33;11.25;;;;;;;27.94;49.67;100381.81;4863374;29;20049;-80
2022/09/09 11:08:22;;;;;;;62.22;10.57;;;;;;;27.88;49.54;100383.63;4872688;29;20045;-78
2022/09/09 11:11:32;;;;;;;58.90;11.73;;;;;;;27.83;50.04;100386.16;4861561;29;20045;-78
2022/09/09 11:14:32;;;;;;;69.10;12.20;;;;;;;27.79;50.14;100377.84;4863267;29;20046;-78
2022/09/09 11:17:21;;;;;;;10.82;3.30;;;;;;;27.71;50.01;100372.91;4849834;29;20038;-77
2022/09/09 11:20:11;;;;;;;34.28;6.50;;;;;;;27.64;50.30;100374.66;4860941;29;20045;-78
2022/09/09 11:23:15;;;;;;;26.20;4.60;;;;;;;27.59;50.63;100374.41;4862685;29;20060;-79
2022/09/09 11:26:03;;;;;;;15.20;3.45;;;;;;;27.58;50.90;100372.88;4852466;29;20053;-78
2022/09/09 11:29:17;;;;;;;19.60;4.18;;;;;;;27.54;50.97;100369.34;4865466;29;20045;-78
2022/09/09 11:32:23;;;;;;;17.17;2.60;;;;;;;27.53;51.16;100362.97;4853850;29;20076;-78
2022/09/09 11:35:11;;;;;;;8.57;1.60;;;;;;;27.49;51.17;100361.47;4856775;29;20049;-78
2022/09/09 11:38:28;;;;;;;11.82;1.90;;;;;;;27.48;51.04;100357.13;4857004;29;20055;-78
2022/09/09 11:41:15;;;;;;;3.90;1.25;;;;;;;27.48;51.47;100359.94;4853363;29;20050;-79
2022/09/09 11:44:10;;;;;;;22.65;4.53;;;;;;;27.49;51.56;100356.72;4864879;29;20053;-78
2022/09/09 11:46:54;;;;;;;;;;;;;;;27.50;51.48;100354.69;4865201;29;20037;-78
2022/09/09 11:49:42;;;;;;;32.08;5.75;;;;;;;27.55;50.90;100354.16;4872575;29;19916;-78
2022/09/09 11:52:38;;;;;;;22.98;4.85;;;;;;;27.59;50.75;100341.66;4881285;29;20049;-78
2022/09/09 11:55:26;;;;;;;12.65;3.05;;;;;;;27.62;50.42;100348.41;4880528;29;20053;-78
2022/09/09 11:58:13;;;;;;;12.15;2.15;;;;;;;27.65;50.04;100339.91;4883406;29;20418;-78
2022/09/09 12:00:58;;;;;;;7.53;1.70;;;;;;;27.71;49.45;100331.78;4879125;29;20057;-78
2022/09/09 12:03:48;;;;;;;6.35;1.45;;;;;;;27.76;49.40;100331.25;4876074;29;20061;-78
2022/09/09 12:06:43;;;;;;;5.25;1.85;;;;;;;27.81;48.87;100330.69;4867822;29;20060;-78
2022/09/09 12:09:27;;;;;;;;;;;;;;;27.86;48.88;100327.34;4867376;29;20056;-78
2022/09/09 12:12:12;;;;;;;6.65;1.30;;;;;;;27.91;48.68;100321.22;4864938;29;19916;-78
2022/09/09 12:15:00;;;;;;;6.00;1.05;;;;;;;27.97;49.08;100319.47;4865555;29;20060;-78
2022/09/09 12:17:52;;;;;;;3.08;1.00;;;;;;;28.03;48.81;100316.91;4869687;29;20048;-78
2022/09/09 12:20:37;;;;;;;1.92;0.68;;;;;;;28.09;48.39;100315.09;4874952;29;20047;-78
2022/09/09 12:23:28;;;;;;;3.70;1.63;;;;;;;28.15;48.19;100306.97;4882408;29;20060;-78
2022/09/09 12:26:36;;;;;;;2.13;0.80;;;;;;;28.22;48.32;100315.94;4863083;29;20048;-77
2022/09/09 12:29:33;;;;;;;1.75;0.60;;;;;;;28.26;47.98;100307.44;4869425;29;20052;-78
2022/09/09 12:32:24;;;;;;;2.38;0.68;;;;;;;28.33;47.49;100315.63;4879400;29;20562;-79
2022/09/09 12:35:21;;;;;;;2.50;0.70;;;;;;;28.38;47.41;100307.47;4878269;29;20079;-78
2022/09/09 12:38:19;;;;;;;2.33;0.70;;;;;;;28.41;47.17;100306.56;4867091;29;20053;-78
2022/09/09 12:41:03;;;;;;;4.60;0.70;;;;;;;28.45;47.14;100310.03;4859102;29;20061;-78
2022/09/09 12:43:50;;;;;;;2.17;0.60;;;;;;;28.50;46.51;100301.06;4858486;29;20526;-78
2022/09/09 12:46:40;;;;;;;6.50;0.70;;;;;;;28.56;46.33;100301.28;4859159;29;20060;-78
2022/09/09 12:49:36;;;;;;;3.60;0.60;;;;;;;28.60;46.17;100299.16;4860072;29;20419;-78
2022/09/09 12:52:24;;;;;;;5.82;0.70;;;;;;;28.65;46.58;100300.63;4859225;29;20515;-78
2022/09/09 12:55:18;;;;;;;2.72;0.60;;;;;;;28.68;45.98;100294.91;4861284;29;20052;-78
2022/09/09 12:58:05;;;;;;;1.38;0.57;;;;;;;28.69;46.11;100285.28;4859413;29;20067;-77
2022/09/09 13:00:56;;;;;;;1.40;0.55;;;;;;;28.78;46.13;100290.22;4878452;29;20056;-78
2022/09/09 13:03:45;;;;;;;3.47;0.95;;;;;;;28.83;45.95;100289.66;4878018;29;20052;-77
2022/09/09 13:06:32;;;;;;;3.00;0.70;;;;;;;28.85;45.90;100287.97;4871386;29;20041;-78
2022/09/09 13:09:17;;;;;;;1.50;0.80;;;;;;;28.88;45.64;100284.28;4861758;29;20523;-78
2022/09/09 13:12:07;;;;;;;2.55;0.80;;;;;;;28.93;45.55;100291.31;4859003;29;20052;-78
2022/09/09 13:14:54;;;;;;;1.83;0.73;;;;;;;28.98;45.48;100284.38;4858895;29;20162;-78
2022/09/09 13:17:40;;;;;;;2.50;0.60;;;;;;;29.01;45.38;100277.84;4860698;29;20056;-78
2022/09/09 13:20:26;;;;;;;3.28;0.60;;;;;;;29.07;45.22;100276.06;4858914;29;20060;-78
2022/09/09 13:23:12;;;;;;;2.15;0.80;;;;;;;29.10;45.37;100281.56;4858752;29;20052;-78
2022/09/09 13:25:59;;;;;;;5.53;0.95;;;;;;;29.12;45.06;100284.66;4859165;29;20049;-77
2022/09/09 13:28:46;;;;;;;2.33;0.80;;;;;;;29.14;45.04;100281.41;4860404;29;20108;-78
2022/09/09 13:31:35;;;;;;;1.77;0.90;;;;;;;29.16;45.09;100279.72;4858797;29;20064;-78
2022/09/09 13:34:28;;;;;;;4.20;0.90;;;;;;;29.20;44.91;100274.00;4859123;29;20053;-78
2022/09/09 13:37:38;;;;;;;2.05;0.65;;;;;;;29.20;44.70;100269.19;4858810;29;20057;-78
2022/09/09 13:40:24;;;;;;;3.85;0.70;;;;;;;29.24;44.46;100271.88;4858754;29;20048;-78
2022/09/09 13:43:21;;;;;;;3.28;0.70;;;;;;;29.27;44.70;100268.94;4859173;29;20519;-78